createdAt,value
2023-03-15T00:01:46.768Z,93.20
2023-03-15T00:06:53.636Z,93.07
2023-03-15T00:11:57.034Z,92.97
2023-03-15T00:17:00.423Z,92.78
2023-03-15T00:22:03.773Z,92.55
2023-03-15T00:27:07.416Z,92.37
2023-03-15T00:32:10.784Z,92.43
2023-03-15T00:37:19.992Z,91.61
2023-03-15T00:42:27.588Z,88.35
2023-03-15T00:47:31.099Z,87.05
2023-03-15T00:52:38.563Z,86.39
2023-03-15T00:57:45.293Z,84.17
2023-03-15T01:02:49.319Z,84.97
2023-03-15T01:07:53.328Z,85.53
2023-03-15T01:12:56.702Z,88.75
2023-03-15T01:18:00.088Z,91.45
2023-03-15T01:23:03.404Z,92.45
2023-03-15T01:28:07.127Z,93.29
2023-03-15T01:33:11.775Z,91.43
2023-03-15T01:38:38.021Z,91.42
2023-03-15T01:43:47.436Z,91.38
2023-03-15T01:49:03.338Z,91.23
2023-03-15T01:54:17.703Z,91.05
2023-03-15T01:59:48.400Z,91.03
2023-03-15T02:05:12.024Z,91.69
2023-03-15T02:10:21.848Z,91.40
2023-03-15T02:15:29.221Z,90.80
2023-03-15T02:20:44.972Z,90.71
2023-03-15T02:26:09.876Z,89.71
2023-03-15T02:31:16.735Z,88.56
2023-03-15T02:36:30.122Z,86.82
2023-03-15T02:41:43.835Z,86.86
2023-03-15T02:46:51.000Z,86.60
2023-03-15T02:51:56.792Z,86.72
2023-03-15T02:57:02.042Z,87.04
2023-03-15T03:02:06.242Z,86.65
2023-03-15T03:07:11.166Z,86.53
2023-03-15T03:12:23.259Z,86.44
2023-03-15T03:17:26.859Z,86.46
2023-03-15T03:22:30.712Z,86.67
2023-03-15T03:27:39.854Z,86.89
2023-03-15T03:32:44.506Z,87.00
2023-03-15T03:37:49.368Z,86.96
2023-03-15T03:42:57.188Z,87.22
2023-03-15T03:48:23.527Z,87.51
2023-03-15T03:53:30.284Z,87.52
2023-03-15T03:58:47.107Z,87.77
2023-03-15T04:03:58.317Z,87.62
2023-03-15T04:09:25.108Z,87.76
2023-03-15T04:14:48.816Z,87.07
2023-03-15T04:19:56.975Z,87.13
2023-03-15T04:25:04.797Z,87.42
2023-03-15T04:31:12.474Z,87.20
2023-03-15T04:36:36.493Z,87.14
2023-03-15T04:42:18.348Z,86.74
2023-03-15T04:48:17.138Z,86.65
2023-03-15T04:53:39.949Z,86.38
2023-03-15T04:59:06.143Z,86.41
2023-03-15T05:04:29.777Z,86.40
2023-03-15T05:10:08.602Z,85.88
2023-03-15T05:15:23.261Z,84.54
2023-03-15T05:21:14.330Z,82.48
2023-03-15T05:26:29.938Z,82.17
2023-03-15T05:32:05.874Z,83.04
2023-03-15T05:37:24.195Z,83.22
2023-03-15T05:42:59.578Z,83.45
2023-03-15T05:48:15.783Z,83.15
2023-03-15T05:53:37.841Z,83.05
2023-03-15T05:59:07.056Z,81.50
2023-03-15T06:04:25.402Z,80.92
2023-03-15T06:09:44.267Z,80.64
2023-03-15T06:14:51.635Z,80.13
2023-03-15T06:19:55.308Z,79.96
2023-03-15T06:24:58.910Z,79.26
2023-03-15T06:30:02.556Z,78.74
2023-03-15T06:35:09.045Z,78.16
2023-03-15T06:40:14.515Z,78.78
2023-03-15T06:45:24.756Z,79.11
2023-03-15T06:50:34.402Z,79.76
2023-03-15T06:55:48.319Z,79.03
2023-03-15T07:00:54.234Z,78.76
2023-03-15T07:06:11.315Z,78.09
2023-03-15T07:11:14.656Z,77.89
2023-03-15T07:16:20.559Z,77.58
2023-03-15T07:21:37.568Z,77.04
2023-03-15T07:26:44.348Z,77.03
2023-03-15T07:31:51.442Z,77.59
2023-03-15T07:36:54.606Z,77.77
2023-03-15T07:42:11.921Z,77.37
2023-03-15T07:47:17.929Z,77.15
2023-03-15T07:52:24.275Z,77.18
2023-03-15T07:57:50.323Z,77.38
2023-03-15T08:02:54.746Z,77.61
2023-03-15T08:07:58.296Z,77.15
2023-03-15T08:13:01.627Z,76.80
2023-03-15T08:18:08.321Z,75.77
2023-03-15T08:23:16.448Z,74.11
2023-03-15T08:28:31.258Z,73.38
2023-03-15T08:33:36.942Z,72.53
2023-03-15T08:38:43.253Z,72.70
2023-03-15T08:43:46.702Z,72.96
2023-03-15T08:48:49.967Z,73.16
2023-03-15T08:53:53.989Z,74.03
2023-03-15T08:58:57.245Z,73.59
2023-03-15T09:04:01.882Z,72.25
2023-03-15T09:09:07.772Z,71.49
2023-03-15T09:14:11.057Z,71.15
2023-03-15T09:19:14.338Z,71.32
2023-03-15T09:24:18.395Z,70.67
2023-03-15T09:29:21.752Z,70.82
2023-03-15T09:34:27.462Z,70.23
2023-03-15T09:39:33.952Z,70.04
2023-03-15T09:44:45.500Z,69.03
2023-03-15T09:50:00.376Z,69.57
2023-03-15T09:55:25.944Z,67.62
2023-03-15T10:00:50.133Z,66.97
2023-03-15T10:05:57.997Z,67.06
2023-03-15T10:11:40.649Z,66.96
2023-03-15T10:16:47.329Z,67.45
2023-03-15T10:21:55.814Z,67.59
2023-03-15T10:28:03.020Z,65.96
2023-03-15T10:33:18.375Z,66.13
2023-03-15T10:38:23.569Z,66.21
2023-03-15T10:43:30.250Z,65.31
2023-03-15T10:48:41.363Z,65.54
2023-03-15T10:54:10.667Z,65.57
2023-03-15T10:59:26.478Z,65.90
2023-03-15T11:04:34.185Z,66.50
2023-03-15T11:09:40.930Z,67.00
2023-03-15T11:14:47.580Z,65.52
2023-03-15T11:20:13.252Z,64.81
2023-03-15T11:25:18.567Z,65.03
2023-03-15T11:30:29.273Z,64.34
2023-03-15T11:35:48.310Z,65.26
2023-03-15T11:40:56.877Z,64.52
2023-03-15T11:46:04.839Z,63.94
2023-03-15T11:51:36.703Z,64.35
2023-03-15T11:57:07.430Z,63.84
2023-03-15T12:02:11.276Z,63.86
2023-03-15T12:07:19.356Z,63.34
2023-03-15T12:12:25.819Z,62.12
2023-03-15T12:17:37.472Z,61.67
2023-03-15T12:22:46.125Z,61.79
2023-03-15T12:27:56.369Z,61.29
2023-03-15T12:33:21.743Z,59.82
2023-03-15T12:38:35.220Z,60.13
2023-03-15T12:44:03.378Z,60.91
2023-03-15T12:49:26.889Z,60.56
2023-03-15T12:54:37.642Z,61.13
2023-03-15T13:00:15.268Z,61.30
2023-03-15T13:05:35.522Z,60.79
2023-03-15T13:10:56.685Z,61.55
2023-03-15T13:16:28.077Z,61.46
2023-03-15T13:21:36.364Z,61.53
2023-03-15T13:27:10.247Z,60.65
2023-03-15T13:32:19.781Z,61.13
2023-03-15T13:37:26.426Z,61.62
2023-03-15T13:42:30.140Z,61.63
2023-03-15T13:47:35.112Z,61.52
2023-03-15T13:52:38.681Z,61.44
2023-03-15T13:57:42.280Z,61.31
2023-03-15T14:02:59.222Z,60.58
2023-03-15T14:08:06.214Z,60.07
2023-03-15T14:13:47.876Z,60.61
2023-03-15T14:18:53.040Z,61.21
2023-03-15T14:23:56.577Z,60.84
2023-03-15T14:29:26.340Z,61.31
2023-03-15T14:34:43.793Z,61.08
2023-03-15T14:39:53.800Z,61.13
2023-03-15T14:44:57.148Z,61.72
2023-03-15T14:50:01.208Z,61.62
2023-03-15T14:55:09.664Z,61.09
2023-03-15T15:00:21.544Z,61.22
2023-03-15T15:05:31.103Z,60.26
2023-03-15T15:10:34.993Z,61.23
2023-03-15T15:15:54.137Z,61.20
2023-03-15T15:21:05.309Z,61.62
2023-03-15T15:26:19.135Z,61.34
2023-03-15T15:31:24.335Z,61.10
2023-03-15T15:36:52.111Z,61.84
2023-03-15T15:41:56.508Z,62.14
2023-03-15T15:47:02.214Z,62.30
2023-03-15T15:52:05.646Z,61.64
2023-03-15T15:57:14.368Z,60.96
2023-03-15T16:02:58.418Z,61.80
2023-03-15T16:08:22.443Z,61.68
2023-03-15T16:13:29.246Z,60.61
2023-03-15T16:18:35.029Z,60.97
2023-03-15T16:23:38.844Z,60.53
2023-03-15T16:28:48.091Z,60.46
2023-03-15T16:34:13.535Z,60.83
2023-03-15T16:39:27.489Z,60.81
2023-03-15T16:44:31.138Z,61.41
2023-03-15T16:50:04.739Z,61.60
2023-03-15T16:55:17.413Z,62.47
2023-03-15T17:00:24.548Z,62.87
2023-03-15T17:05:28.221Z,63.31
2023-03-15T17:10:32.543Z,63.56
2023-03-15T17:15:35.923Z,64.02
2023-03-15T17:20:39.895Z,64.45
2023-03-15T17:25:43.566Z,64.52
2023-03-15T17:30:55.198Z,65.19
2023-03-15T17:36:07.274Z,65.53
2023-03-15T17:41:47.562Z,65.82
2023-03-15T17:47:02.085Z,65.96
2023-03-15T17:52:19.164Z,66.25
2023-03-15T17:57:26.058Z,66.75
2023-03-15T18:02:56.361Z,67.26
2023-03-15T18:08:00.751Z,67.86
2023-03-15T18:13:04.808Z,68.30
2023-03-15T18:18:09.139Z,68.48
2023-03-15T18:23:32.964Z,68.93
2023-03-15T18:28:37.157Z,69.52
2023-03-15T18:34:03.657Z,69.86
2023-03-15T18:39:25.607Z,70.36
2023-03-15T18:44:32.145Z,70.54
2023-03-15T18:49:45.656Z,71.23
2023-03-15T18:54:49.174Z,71.73
2023-03-15T18:59:58.271Z,72.19
2023-03-15T19:05:04.961Z,72.72
2023-03-15T19:10:29.296Z,73.21
2023-03-15T19:15:35.096Z,73.30
2023-03-15T19:20:42.139Z,73.52
2023-03-15T19:26:14.962Z,73.57
2023-03-15T19:32:03.029Z,73.77
2023-03-15T19:37:26.879Z,74.04
2023-03-15T19:43:38.424Z,74.54
2023-03-15T19:49:10.711Z,75.00
2023-03-15T19:54:54.796Z,75.59
2023-03-15T20:00:12.749Z,76.05
2023-03-15T20:05:55.324Z,76.34
2023-03-15T20:11:53.372Z,76.63
2023-03-15T20:17:49.442Z,76.68
2023-03-15T20:23:08.689Z,76.79
2023-03-15T20:28:14.680Z,76.87
2023-03-15T20:33:41.449Z,77.13
2023-03-15T20:39:02.393Z,77.57
2023-03-15T20:44:08.715Z,77.84
2023-03-15T20:49:22.578Z,78.36
2023-03-15T20:55:06.972Z,78.62
2023-03-15T21:00:58.657Z,78.83
2023-03-15T21:06:11.283Z,79.23
2023-03-15T21:11:27.524Z,79.37
2023-03-15T21:16:34.240Z,79.59
2023-03-15T21:21:47.562Z,79.59
2023-03-15T21:26:54.829Z,79.75
2023-03-15T21:32:00.910Z,80.02
2023-03-15T21:37:17.550Z,80.34
2023-03-15T21:42:20.980Z,80.49
2023-03-15T21:47:24.656Z,80.93
2023-03-15T21:52:28.146Z,80.94
2023-03-15T21:57:40.641Z,81.01
2023-03-15T22:02:44.475Z,80.87
2023-03-15T22:07:48.952Z,80.80
2023-03-15T22:12:55.821Z,80.93
2023-03-15T22:18:33.165Z,81.06
2023-03-15T22:23:39.671Z,81.07
2023-03-15T22:28:46.174Z,81.19
2023-03-15T22:33:50.146Z,81.15
2023-03-15T22:38:53.875Z,81.23
2023-03-15T22:43:57.897Z,81.27
2023-03-15T22:49:07.435Z,81.31
2023-03-15T22:54:33.389Z,81.52
2023-03-15T22:59:43.532Z,81.69
2023-03-15T23:04:49.320Z,81.96
2023-03-15T23:09:52.823Z,82.09
2023-03-15T23:15:03.567Z,82.38
2023-03-15T23:20:28.452Z,82.60
2023-03-15T23:26:05.177Z,82.65
2023-03-15T23:31:08.984Z,82.69
2023-03-15T23:36:37.892Z,82.73
2023-03-15T23:41:41.470Z,82.90
2023-03-15T23:47:05.235Z,82.90
2023-03-15T23:52:49.307Z,82.67
2023-03-15T23:57:52.719Z,82.61
